TimeMDT,TemperatureF,Dew PointF,Humidity,Sea Level PressureIn,VisibilityMPH,Wind Direction,Wind SpeedMPH,Gust SpeedMPH,PrecipitationIn,Events,Conditions,WindDirDegrees,DateUTC
12:53 AM,62.1,15.1,16,29.55,10.0,SSW,12.7,-,N/A,,Clear,200,2013-05-27 06:53:00
1:53 AM,70.0,9.0,9,29.53,10.0,West,12.7,-,N/A,,Clear,260,2013-05-27 07:53:00
2:53 AM,60.1,12.9,16,29.55,10.0,WSW,9.2,-,N/A,,Clear,240,2013-05-27 08:53:00
3:53 AM,57.9,21.9,25,29.55,10.0,SSW,10.4,-,N/A,,Clear,210,2013-05-27 09:53:00
4:53 AM,64.0,36.0,35,29.57,10.0,West,11.5,-,N/A,,Clear,260,2013-05-27 10:53:00
5:53 AM,61.0,41.0,48,29.60,10.0,WSW,6.9,-,N/A,,Clear,240,2013-05-27 11:53:00
6:53 AM,66.0,48.0,52,29.61,10.0,West,8.1,-,N/A,,Clear,280,2013-05-27 12:53:00
7:53 AM,71.1,54.0,55,29.62,9.0,WNW,9.2,-,N/A,,Clear,300,2013-05-27 13:53:00
8:53 AM,75.9,57.9,54,29.63,7.0,NNW,10.4,-,N/A,,Clear,330,2013-05-27 14:53:00
9:53 AM,81.0,55.0,41,29.60,9.0,North,10.4,-,N/A,,Clear,350,2013-05-27 15:53:00
10:53 AM,88.0,44.1,22,29.57,10.0,NNE,11.5,24.2,N/A,,Clear,30,2013-05-27 16:53:00
11:53 AM,89.1,35.1,15,29.57,10.0,ENE,6.9,17.3,N/A,,Clear,70,2013-05-27 17:53:00
12:53 PM,91.0,33.1,13,29.55,10.0,North,5.8,-,N/A,,Mostly Cloudy,10,2013-05-27 18:53:00
1:53 PM,91.0,33.1,13,29.52,10.0,East,6.9,-,N/A,,Partly Cloudy,90,2013-05-27 19:53:00
2:53 PM,88.0,41.0,19,29.52,10.0,ENE,11.5,-,N/A,,Mostly Cloudy,60,2013-05-27 20:53:00
3:53 PM,88.0,39.9,18,29.52,10.0,Variable,6.9,-,N/A,,Partly Cloudy,0,2013-05-27 21:53:00
4:53 PM,91.0,41.0,17,29.47,10.0,ENE,13.8,-,N/A,,Clear,70,2013-05-27 22:53:00
5:53 PM,88.0,39.9,18,29.46,10.0,East,15.0,-,N/A,,Clear,90,2013-05-27 23:53:00
6:53 PM,84.0,42.1,23,29.47,10.0,East,10.4,-,N/A,,Clear,80,2013-05-28 00:53:00
7:53 PM,79.0,43.0,28,29.48,10.0,ENE,13.8,-,N/A,,Clear,70,2013-05-28 01:53:00
8:53 PM,73.0,46.9,39,29.49,10.0,ENE,11.5,-,N/A,,Clear,60,2013-05-28 02:53:00
9:53 PM,73.0,52.0,48,29.50,10.0,East,16.1,-,N/A,,Clear,80,2013-05-28 03:53:00
10:53 PM,70.0,55.0,59,29.54,10.0,NE,18.4,26.5,N/A,,Clear,50,2013-05-28 04:53:00
11:53 PM,64.9,57.0,75,29.56,9.0,ENE,10.4,-,N/A,,Clear,70,2013-05-28 05:53:00